sensor_id;sensor_type;location;lat;lon;timestamp;temperature;humidity
42031;DHT22;27709;52.036;5.906;2024-01-15T00:00:00;4.80;99.90
42031;DHT22;27709;52.036;5.906;2024-01-15T00:02:26;4.70;99.90
42031;DHT22;27709;52.036;5.906;2024-01-15T00:04:51;4.80;99.90
42031;DHT22;27709;52.036;5.906;2024-01-15T00:07:17;4.70;99.90
42031;DHT22;27709;52.036;5.906;2024-01-15T00:09:42;4.70;99.90
42031;DHT22;27709;52.036;5.906;2024-01-15T00:12:08;4.60;99.90
42031;DHT22;27709;52.036;5.906;2024-01-15T00:14:33;4.60;99.90
42031;DHT22;27709;52.036;5.906;2024-01-15T00:16:59;4.50;99.90
42031;DHT22;27709;52.036;5.906;2024-01-15T00:19:25;4.40;99.90
42031;DHT22;27709;52.036;5.906;2024-01-15T00:21:50;4.40;99.90
42031;DHT22;27709;52.036;5.906;2024-01-15T00:24:16;4.40;99.90
42031;DHT22;27709;52.036;5.906;2024-01-15T00:26:42;4.30;99.90
42031;DHT22;27709;52.036;5.906;2024-01-15T00:29:08;4.30;99.90
42031;DHT22;27709;52.036;5.906;2024-01-15T00:31:34;4.30;99.90
42031;DHT22;27709;52.036;5.906;2024-01-15T00:33:59;4.20;99.90
42031;DHT22;27709;52.036;5.906;2024-01-15T00:36:25;4.20;99.90
42031;DHT22;27709;52.036;5.906;2024-01-15T00:38:51;4.20;99.90
42031;DHT22;27709;52.036;5.906;2024-01-15T00:41:17;4.10;99.90
42031;DHT22;27709;52.036;5.906;2024-01-15T00:43:44;4.10;99.90
42031;DHT22;27709;52.036;5.906;2024-01-15T00:46:10;4.10;99.90
42031;DHT22;27709;52.036;5.906;2024-01-15T00:48:36;4.00;99.90
42031;DHT22;27709;52.036;5.906;2024-01-15T00:51:01;4.00;99.90
42031;DHT22;27709;52.036;5.906;2024-01-15T00:53:27;4.00;99.90
42031;DHT22;27709;52.036;5.906;2024-01-15T00:55:52;3.90;99.90
42031;DHT22;27709;52.036;5.906;2024-01-15T00:58:19;3.90;99.90
42031;DHT22;27709;52.036;5.906;2024-01-15T01:00:44;3.90;99.90
42031;DHT22;27709;52.036;5.906;2024-01-15T01:03:10;3.80;99.90
42031;DHT22;27709;52.036;5.906;2024-01-15T01:05:35;3.80;99.90
42031;DHT22;27709;52.036;5.906;2024-01-15T01:08:01;3.80;99.90
42031;DHT22;27709;52.036;5.906;2024-01-15T01:10:28;3.80;99.90
42031;DHT22;27709;52.036;5.906;2024-01-15T01:12:53;3.80;99.90
42031;DHT22;27709;52.036;5.906;2024-01-15T01:15:19;3.80;99.90
42031;DHT22;27709;52.036;5.906;2024-01-15T01:17:45;3.80;99.90
42031;DHT22;27709;52.036;5.906;2024-01-15T01:20:11;3.80;99.90
42031;DHT22;27709;52.036;5.906;2024-01-15T01:22:37;3.80;99.90
42031;DHT22;27709;52.036;5.906;2024-01-15T01:25:03;3.70;99.90
42031;DHT22;27709;52.036;5.906;2024-01-15T01:27:28;3.80;99.90
42031;DHT22;27709;52.036;5.906;2024-01-15T01:29:54;3.80;99.90
42031;DHT22;27709;52.036;5.906;2024-01-15T01:32:20;3.80;99.90
42031;DHT22;27709;52.036;5.906;2024-01-15T01:34:45;3.80;99.90
42031;DHT22;27709;52.036;5.906;2024-01-15T01:37:11;3.80;99.90
42031;DHT22;27709;52.036;5.906;2024-01-15T01:39:41;3.80;99.90
42031;DHT22;27709;52.036;5.906;2024-01-15T01:42:06;3.80;99.90
42031;DHT22;27709;52.036;5.906;2024-01-15T01:44:32;3.80;99.90
42031;DHT22;27709;52.036;5.906;2024-01-15T01:46:59;3.80;99.90
42031;DHT22;27709;52.036;5.906;2024-01-15T01:49:26;3.80;99.90
42031;DHT22;27709;52.036;5.906;2024-01-15T01:51:53;3.80;99.90
42031;DHT22;27709;52.036;5.906;2024-01-15T01:54:21;3.80;99.90
42031;DHT22;27709;52.036;5.906;2024-01-15T01:56:48;3.90;99.90
42031;DHT22;27709;52.036;5.906;2024-01-15T01:59:14;3.90;99.90
42031;DHT22;27709;52.036;5.906;2024-01-15T02:01:40;3.90;99.90
42031;DHT22;27709;52.036;5.906;2024-01-15T02:04:07;3.90;99.90
42031;DHT22;27709;52.036;5.906;2024-01-15T02:06:33;3.80;99.90
42031;DHT22;27709;52.036;5.906;2024-01-15T02:08:59;3.90;99.90
42031;DHT22;27709;52.036;5.906;2024-01-15T02:11:25;3.80;99.90
42031;DHT22;27709;52.036;5.906;2024-01-15T02:13:50;3.80;99.90
42031;DHT22;27709;52.036;5.906;2024-01-15T02:16:16;3.80;99.90
42031;DHT22;27709;52.036;5.906;2024-01-15T02:18:44;3.70;99.90
42031;DHT22;27709;52.036;5.906;2024-01-15T02:21:10;3.70;99.90
42031;DHT22;27709;52.036;5.906;2024-01-15T02:23:36;3.70;99.90
42031;DHT22;27709;52.036;5.906;2024-01-15T02:26:02;3.70;99.90
42031;DHT22;27709;52.036;5.906;2024-01-15T02:28:28;3.60;99.90
42031;DHT22;27709;52.036;5.906;2024-01-15T02:30:53;3.60;99.90
42031;DHT22;27709;52.036;5.906;2024-01-15T02:33:19;3.60;99.90
42031;DHT22;27709;52.036;5.906;2024-01-15T02:35:45;3.60;99.90
42031;DHT22;27709;52.036;5.906;2024-01-15T02:38:11;3.60;99.90
42031;DHT22;27709;52.036;5.906;2024-01-15T02:40:38;3.50;99.90
42031;DHT22;27709;52.036;5.906;2024-01-15T02:43:04;3.70;99.90
42031;DHT22;27709;52.036;5.906;2024-01-15T02:45:29;3.70;99.90
42031;DHT22;27709;52.036;5.906;2024-01-15T02:47:55;3.80;99.90
42031;DHT22;27709;52.036;5.906;2024-01-15T02:50:21;3.90;99.90
42031;DHT22;27709;52.036;5.906;2024-01-15T02:52:46;4.00;99.90
42031;DHT22;27709;52.036;5.906;2024-01-15T02:55:12;4.00;99.90
42031;DHT22;27709;52.036;5.906;2024-01-15T02:57:38;4.10;99.90
42031;DHT22;27709;52.036;5.906;2024-01-15T03:00:04;4.10;99.90
42031;DHT22;27709;52.036;5.906;2024-01-15T03:02:30;4.10;99.90
42031;DHT22;27709;52.036;5.906;2024-01-15T03:04:58;4.10;99.90
42031;DHT22;27709;52.036;5.906;2024-01-15T03:07:23;4.00;99.90
42031;DHT22;27709;52.036;5.906;2024-01-15T03:09:49;4.10;99.90
42031;DHT22;27709;52.036;5.906;2024-01-15T03:12:16;4.00;99.90
42031;DHT22;27709;52.036;5.906;2024-01-15T03:14:43;4.00;99.90
42031;DHT22;27709;52.036;5.906;2024-01-15T03:17:09;4.00;99.90
42031;DHT22;27709;52.036;5.906;2024-01-15T03:19:35;3.90;99.90
42031;DHT22;27709;52.036;5.906;2024-01-15T03:22:01;3.90;99.90
42031;DHT22;27709;52.036;5.906;2024-01-15T03:24:28;4.00;99.90
42031;DHT22;27709;52.036;5.906;2024-01-15T03:26:53;3.90;99.90
42031;DHT22;27709;52.036;5.906;2024-01-15T03:29:19;3.90;99.90
42031;DHT22;27709;52.036;5.906;2024-01-15T03:31:44;3.80;99.90
42031;DHT22;27709;52.036;5.906;2024-01-15T03:34:11;3.90;99.90
42031;DHT22;27709;52.036;5.906;2024-01-15T03:36:38;3.90;99.90
42031;DHT22;27709;52.036;5.906;2024-01-15T03:39:03;3.90;99.90
42031;DHT22;27709;52.036;5.906;2024-01-15T03:41:29;3.90;99.90
42031;DHT22;27709;52.036;5.906;2024-01-15T03:43:55;3.90;99.90
42031;DHT22;27709;52.036;5.906;2024-01-15T03:46:20;3.90;99.90
42031;DHT22;27709;52.036;5.906;2024-01-15T03:48:46;4.00;99.90
42031;DHT22;27709;52.036;5.906;2024-01-15T03:51:11;4.10;99.90
42031;DHT22;27709;52.036;5.906;2024-01-15T03:53:38;4.10;99.90
42031;DHT22;27709;52.036;5.906;2024-01-15T03:56:06;4.20;99.90
42031;DHT22;27709;52.036;5.906;2024-01-15T03:58:32;4.40;99.90
42031;DHT22;27709;52.036;5.906;2024-01-15T04:00:57;4.50;99.90
42031;DHT22;27709;52.036;5.906;2024-01-15T04:03:23;4.60;99.90
42031;DHT22;27709;52.036;5.906;2024-01-15T04:05:48;4.70;99.90
42031;DHT22;27709;52.036;5.906;2024-01-15T04:08:14;4.80;99.90
42031;DHT22;27709;52.036;5.906;2024-01-15T04:10:40;4.70;99.90
42031;DHT22;27709;52.036;5.906;2024-01-15T04:13:05;4.70;99.90
42031;DHT22;27709;52.036;5.906;2024-01-15T04:15:31;4.70;99.90
42031;DHT22;27709;52.036;5.906;2024-01-15T04:17:56;4.60;99.90
42031;DHT22;27709;52.036;5.906;2024-01-15T04:20:22;4.60;99.90
42031;DHT22;27709;52.036;5.906;2024-01-15T04:22:47;4.50;99.90
42031;DHT22;27709;52.036;5.906;2024-01-15T04:25:13;4.40;99.90
42031;DHT22;27709;52.036;5.906;2024-01-15T04:27:39;4.50;99.90
42031;DHT22;27709;52.036;5.906;2024-01-15T04:30:05;4.40;99.90
42031;DHT22;27709;52.036;5.906;2024-01-15T04:32:30;4.40;99.90
42031;DHT22;27709;52.036;5.906;2024-01-15T04:34:56;4.40;99.90
42031;DHT22;27709;52.036;5.906;2024-01-15T04:37:21;4.30;99.90
42031;DHT22;27709;52.036;5.906;2024-01-15T04:39:47;4.20;99.90
42031;DHT22;27709;52.036;5.906;2024-01-15T04:42:13;4.10;99.90
42031;DHT22;27709;52.036;5.906;2024-01-15T04:44:38;4.10;99.90
42031;DHT22;27709;52.036;5.906;2024-01-15T04:47:04;4.00;99.90
42031;DHT22;27709;52.036;5.906;2024-01-15T04:49:30;3.90;99.90
42031;DHT22;27709;52.036;5.906;2024-01-15T04:51:55;3.90;99.90
42031;DHT22;27709;52.036;5.906;2024-01-15T04:54:21;3.90;99.90
42031;DHT22;27709;52.036;5.906;2024-01-15T04:56:46;3.90;99.90
42031;DHT22;27709;52.036;5.906;2024-01-15T04:59:13;3.90;99.90
42031;DHT22;27709;52.036;5.906;2024-01-15T05:01:39;4.00;99.90
42031;DHT22;27709;52.036;5.906;2024-01-15T05:04:05;4.00;99.90
42031;DHT22;27709;52.036;5.906;2024-01-15T05:06:31;4.00;99.90
42031;DHT22;27709;52.036;5.906;2024-01-15T05:08:57;4.00;99.90
42031;DHT22;27709;52.036;5.906;2024-01-15T05:11:22;4.00;99.90
42031;DHT22;27709;52.036;5.906;2024-01-15T05:13:48;3.90;99.90
42031;DHT22;27709;52.036;5.906;2024-01-15T05:16:14;4.00;99.90
42031;DHT22;27709;52.036;5.906;2024-01-15T05:18:39;4.00;99.90
42031;DHT22;27709;52.036;5.906;2024-01-15T05:21:06;4.10;99.90
42031;DHT22;27709;52.036;5.906;2024-01-15T05:23:32;4.10;99.90
42031;DHT22;27709;52.036;5.906;2024-01-15T05:25:57;4.10;99.90
42031;DHT22;27709;52.036;5.906;2024-01-15T05:28:23;4.10;99.90
42031;DHT22;27709;52.036;5.906;2024-01-15T05:30:49;4.20;99.90
42031;DHT22;27709;52.036;5.906;2024-01-15T05:33:16;4.30;99.90
42031;DHT22;27709;52.036;5.906;2024-01-15T05:35:41;4.30;99.90
42031;DHT22;27709;52.036;5.906;2024-01-15T05:38:07;4.30;99.90
42031;DHT22;27709;52.036;5.906;2024-01-15T05:40:33;4.30;99.90
42031;DHT22;27709;52.036;5.906;2024-01-15T05:42:58;4.10;99.90
42031;DHT22;27709;52.036;5.906;2024-01-15T05:45:26;4.10;99.90
42031;DHT22;27709;52.036;5.906;2024-01-15T05:47:52;4.00;99.90
42031;DHT22;27709;52.036;5.906;2024-01-15T05:50:17;3.90;99.90
42031;DHT22;27709;52.036;5.906;2024-01-15T05:52:43;4.00;99.90
42031;DHT22;27709;52.036;5.906;2024-01-15T05:55:09;4.00;99.90
42031;DHT22;27709;52.036;5.906;2024-01-15T05:57:35;4.00;99.90
42031;DHT22;27709;52.036;5.906;2024-01-15T06:00:01;4.00;99.90
42031;DHT22;27709;52.036;5.906;2024-01-15T06:02:28;4.10;99.90
42031;DHT22;27709;52.036;5.906;2024-01-15T06:04:53;4.10;99.90
42031;DHT22;27709;52.036;5.906;2024-01-15T06:07:19;4.10;99.90
42031;DHT22;27709;52.036;5.906;2024-01-15T06:09:44;4.10;99.90
42031;DHT22;27709;52.036;5.906;2024-01-15T06:12:10;4.10;99.90
42031;DHT22;27709;52.036;5.906;2024-01-15T06:14:35;4.20;99.90
42031;DHT22;27709;52.036;5.906;2024-01-15T06:17:01;4.20;99.90
42031;DHT22;27709;52.036;5.906;2024-01-15T06:19:27;4.20;99.90
42031;DHT22;27709;52.036;5.906;2024-01-15T06:21:52;4.20;99.90
42031;DHT22;27709;52.036;5.906;2024-01-15T06:24:18;4.20;99.90
42031;DHT22;27709;52.036;5.906;2024-01-15T06:26:46;4.20;99.90
42031;DHT22;27709;52.036;5.906;2024-01-15T06:29:12;4.30;99.90
42031;DHT22;27709;52.036;5.906;2024-01-15T06:31:38;4.20;99.90
42031;DHT22;27709;52.036;5.906;2024-01-15T06:34:03;4.20;99.90
42031;DHT22;27709;52.036;5.906;2024-01-15T06:36:29;4.20;99.90
42031;DHT22;27709;52.036;5.906;2024-01-15T06:38:54;4.30;99.90
42031;DHT22;27709;52.036;5.906;2024-01-15T06:41:21;4.30;99.90
42031;DHT22;27709;52.036;5.906;2024-01-15T06:43:47;4.30;99.90
42031;DHT22;27709;52.036;5.906;2024-01-15T06:46:12;4.30;99.90
42031;DHT22;27709;52.036;5.906;2024-01-15T06:48:38;4.30;99.90
42031;DHT22;27709;52.036;5.906;2024-01-15T06:51:04;4.40;99.90
42031;DHT22;27709;52.036;5.906;2024-01-15T06:53:29;4.30;99.90
42031;DHT22;27709;52.036;5.906;2024-01-15T06:55:55;4.30;99.90
42031;DHT22;27709;52.036;5.906;2024-01-15T06:58:20;4.20;99.90
42031;DHT22;27709;52.036;5.906;2024-01-15T07:00:46;4.20;99.90
42031;DHT22;27709;52.036;5.906;2024-01-15T07:03:12;4.20;99.90
42031;DHT22;27709;52.036;5.906;2024-01-15T07:05:38;4.20;99.90
42031;DHT22;27709;52.036;5.906;2024-01-15T07:08:04;4.20;99.90
42031;DHT22;27709;52.036;5.906;2024-01-15T07:10:29;4.20;99.90
42031;DHT22;27709;52.036;5.906;2024-01-15T07:12:55;4.20;99.90
42031;DHT22;27709;52.036;5.906;2024-01-15T07:15:21;4.20;99.90
42031;DHT22;27709;52.036;5.906;2024-01-15T07:17:46;4.20;99.90
42031;DHT22;27709;52.036;5.906;2024-01-15T07:20:12;4.10;99.90
42031;DHT22;27709;52.036;5.906;2024-01-15T07:22:38;4.10;99.90
42031;DHT22;27709;52.036;5.906;2024-01-15T07:25:04;4.00;99.90
42031;DHT22;27709;52.036;5.906;2024-01-15T07:27:30;4.00;99.90
42031;DHT22;27709;52.036;5.906;2024-01-15T07:29:56;4.00;99.90
42031;DHT22;27709;52.036;5.906;2024-01-15T07:32:22;4.10;99.90
42031;DHT22;27709;52.036;5.906;2024-01-15T07:34:48;4.10;99.90
42031;DHT22;27709;52.036;5.906;2024-01-15T07:37:13;4.10;99.90
42031;DHT22;27709;52.036;5.906;2024-01-15T07:39:39;4.10;99.90
42031;DHT22;27709;52.036;5.906;2024-01-15T07:42:05;4.10;99.90
42031;DHT22;27709;52.036;5.906;2024-01-15T07:44:31;4.10;99.90
42031;DHT22;27709;52.036;5.906;2024-01-15T07:46:56;4.20;99.90
42031;DHT22;27709;52.036;5.906;2024-01-15T07:49:22;4.20;99.90
42031;DHT22;27709;52.036;5.906;2024-01-15T07:51:49;4.20;99.90
42031;DHT22;27709;52.036;5.906;2024-01-15T07:54:14;4.20;99.90
42031;DHT22;27709;52.036;5.906;2024-01-15T07:57:02;4.20;99.90
42031;DHT22;27709;52.036;5.906;2024-01-15T07:59:31;4.20;99.90
42031;DHT22;27709;52.036;5.906;2024-01-15T08:01:59;4.20;99.90
42031;DHT22;27709;52.036;5.906;2024-01-15T08:04:24;4.20;99.90
42031;DHT22;27709;52.036;5.906;2024-01-15T08:06:50;4.20;99.90
42031;DHT22;27709;52.036;5.906;2024-01-15T08:09:16;4.30;99.90
42031;DHT22;27709;52.036;5.906;2024-01-15T08:11:42;4.30;99.90
42031;DHT22;27709;52.036;5.906;2024-01-15T08:14:11;4.30;99.90
42031;DHT22;27709;52.036;5.906;2024-01-15T08:16:37;4.40;99.90
42031;DHT22;27709;52.036;5.906;2024-01-15T08:19:03;4.30;99.90
42031;DHT22;27709;52.036;5.906;2024-01-15T08:21:29;4.40;99.90
42031;DHT22;27709;52.036;5.906;2024-01-15T08:23:58;4.40;99.90
42031;DHT22;27709;52.036;5.906;2024-01-15T08:26:24;4.40;99.90
42031;DHT22;27709;52.036;5.906;2024-01-15T08:28:50;4.40;99.90
42031;DHT22;27709;52.036;5.906;2024-01-15T08:31:16;4.50;99.90
42031;DHT22;27709;52.036;5.906;2024-01-15T08:33:41;4.50;99.90
42031;DHT22;27709;52.036;5.906;2024-01-15T08:36:07;4.50;99.90
42031;DHT22;27709;52.036;5.906;2024-01-15T08:38:32;4.40;99.90
42031;DHT22;27709;52.036;5.906;2024-01-15T08:40:59;4.40;99.90
42031;DHT22;27709;52.036;5.906;2024-01-15T08:43:26;4.40;99.90
42031;DHT22;27709;52.036;5.906;2024-01-15T08:45:52;4.40;99.90
42031;DHT22;27709;52.036;5.906;2024-01-15T08:48:17;4.40;99.90
42031;DHT22;27709;52.036;5.906;2024-01-15T08:50:43;4.40;99.90
42031;DHT22;27709;52.036;5.906;2024-01-15T08:53:11;4.40;99.90
42031;DHT22;27709;52.036;5.906;2024-01-15T08:55:37;4.40;99.90
42031;DHT22;27709;52.036;5.906;2024-01-15T08:58:03;4.40;99.90
42031;DHT22;27709;52.036;5.906;2024-01-15T09:00:29;4.40;99.90
42031;DHT22;27709;52.036;5.906;2024-01-15T09:02:55;4.40;99.90
42031;DHT22;27709;52.036;5.906;2024-01-15T09:05:21;4.50;99.90
42031;DHT22;27709;52.036;5.906;2024-01-15T09:07:47;4.50;99.90
42031;DHT22;27709;52.036;5.906;2024-01-15T09:10:13;4.40;99.90
42031;DHT22;27709;52.036;5.906;2024-01-15T09:12:39;4.40;99.90
42031;DHT22;27709;52.036;5.906;2024-01-15T09:15:05;4.50;99.90
42031;DHT22;27709;52.036;5.906;2024-01-15T09:17:32;4.50;99.90
42031;DHT22;27709;52.036;5.906;2024-01-15T09:19:57;4.50;99.90
42031;DHT22;27709;52.036;5.906;2024-01-15T09:22:23;4.50;99.90
42031;DHT22;27709;52.036;5.906;2024-01-15T09:24:49;4.40;99.90
42031;DHT22;27709;52.036;5.906;2024-01-15T09:27:14;4.50;99.90
42031;DHT22;27709;52.036;5.906;2024-01-15T09:29:41;4.60;99.90
42031;DHT22;27709;52.036;5.906;2024-01-15T09:32:07;4.70;99.90
42031;DHT22;27709;52.036;5.906;2024-01-15T09:34:34;4.70;99.90
42031;DHT22;27709;52.036;5.906;2024-01-15T09:36:59;4.80;99.90
42031;DHT22;27709;52.036;5.906;2024-01-15T09:39:26;4.90;99.90
42031;DHT22;27709;52.036;5.906;2024-01-15T09:41:53;5.10;99.90
42031;DHT22;27709;52.036;5.906;2024-01-15T09:44:19;5.40;99.90
42031;DHT22;27709;52.036;5.906;2024-01-15T09:46:45;5.50;99.90
42031;DHT22;27709;52.036;5.906;2024-01-15T09:49:12;5.50;99.90
42031;DHT22;27709;52.036;5.906;2024-01-15T09:51:39;5.60;99.90
42031;DHT22;27709;52.036;5.906;2024-01-15T09:54:05;5.70;99.90
42031;DHT22;27709;52.036;5.906;2024-01-15T09:56:31;5.80;99.90
42031;DHT22;27709;52.036;5.906;2024-01-15T09:58:57;5.90;99.90
42031;DHT22;27709;52.036;5.906;2024-01-15T10:01:23;5.80;99.90
42031;DHT22;27709;52.036;5.906;2024-01-15T10:03:50;5.70;99.90
42031;DHT22;27709;52.036;5.906;2024-01-15T10:06:16;5.60;99.90
42031;DHT22;27709;52.036;5.906;2024-01-15T10:08:50;5.50;99.90
42031;DHT22;27709;52.036;5.906;2024-01-15T10:11:16;5.40;99.90
42031;DHT22;27709;52.036;5.906;2024-01-15T10:13:44;5.30;99.90
42031;DHT22;27709;52.036;5.906;2024-01-15T10:16:10;5.30;99.90
42031;DHT22;27709;52.036;5.906;2024-01-15T10:18:36;5.60;99.90
42031;DHT22;27709;52.036;5.906;2024-01-15T10:21:08;6.10;99.90
42031;DHT22;27709;52.036;5.906;2024-01-15T10:23:34;6.60;99.90
42031;DHT22;27709;52.036;5.906;2024-01-15T10:26:00;6.60;99.90
42031;DHT22;27709;52.036;5.906;2024-01-15T10:28:30;6.40;99.90
42031;DHT22;27709;52.036;5.906;2024-01-15T10:30:58;6.20;99.90
42031;DHT22;27709;52.036;5.906;2024-01-15T10:33:26;5.90;99.90
42031;DHT22;27709;52.036;5.906;2024-01-15T10:35:56;5.80;99.90
42031;DHT22;27709;52.036;5.906;2024-01-15T10:38:24;5.80;99.90
42031;DHT22;27709;52.036;5.906;2024-01-15T10:40:54;5.80;99.90
42031;DHT22;27709;52.036;5.906;2024-01-15T10:43:21;5.80;99.90
42031;DHT22;27709;52.036;5.906;2024-01-15T10:45:50;5.80;99.90
42031;DHT22;27709;52.036;5.906;2024-01-15T10:48:18;5.80;99.90
42031;DHT22;27709;52.036;5.906;2024-01-15T10:50:45;5.80;99.90
42031;DHT22;27709;52.036;5.906;2024-01-15T10:53:12;5.80;99.90
42031;DHT22;27709;52.036;5.906;2024-01-15T10:55:38;5.90;99.90
42031;DHT22;27709;52.036;5.906;2024-01-15T10:58:07;6.00;99.90
42031;DHT22;27709;52.036;5.906;2024-01-15T11:00:33;6.10;99.90
42031;DHT22;27709;52.036;5.906;2024-01-15T11:03:01;6.10;99.90
42031;DHT22;27709;52.036;5.906;2024-01-15T11:05:27;6.00;99.90
42031;DHT22;27709;52.036;5.906;2024-01-15T11:07:55;5.90;99.90
42031;DHT22;27709;52.036;5.906;2024-01-15T11:10:41;5.90;99.90
42031;DHT22;27709;52.036;5.906;2024-01-15T11:16:02;5.60;99.90
42031;DHT22;27709;52.036;5.906;2024-01-15T11:18:35;5.40;99.90
42031;DHT22;27709;52.036;5.906;2024-01-15T11:29:00;5.90;99.90
42031;DHT22;27709;52.036;5.906;2024-01-15T11:33:53;6.10;99.90
42031;DHT22;27709;52.036;5.906;2024-01-15T11:42:01;5.90;99.90
42031;DHT22;27709;52.036;5.906;2024-01-15T11:44:27;5.90;99.90
42031;DHT22;27709;52.036;5.906;2024-01-15T11:47:04;6.00;99.90
42031;DHT22;27709;52.036;5.906;2024-01-15T11:49:41;6.20;99.90
42031;DHT22;27709;52.036;5.906;2024-01-15T11:52:11;6.30;99.90
42031;DHT22;27709;52.036;5.906;2024-01-15T11:54:40;6.40;99.90
42031;DHT22;27709;52.036;5.906;2024-01-15T11:57:10;6.30;99.90
42031;DHT22;27709;52.036;5.906;2024-01-15T11:59:39;6.10;99.90
42031;DHT22;27709;52.036;5.906;2024-01-15T12:02:05;6.00;99.90
42031;DHT22;27709;52.036;5.906;2024-01-15T12:04:30;6.10;99.90
42031;DHT22;27709;52.036;5.906;2024-01-15T12:06:56;6.20;99.90
42031;DHT22;27709;52.036;5.906;2024-01-15T12:09:21;6.20;99.90
42031;DHT22;27709;52.036;5.906;2024-01-15T12:12:03;6.30;99.90
42031;DHT22;27709;52.036;5.906;2024-01-15T12:14:32;6.40;99.90
42031;DHT22;27709;52.036;5.906;2024-01-15T12:17:00;6.50;99.90
42031;DHT22;27709;52.036;5.906;2024-01-15T12:19:25;6.60;99.90
42031;DHT22;27709;52.036;5.906;2024-01-15T12:21:51;6.60;99.90
42031;DHT22;27709;52.036;5.906;2024-01-15T12:24:17;6.70;99.90
42031;DHT22;27709;52.036;5.906;2024-01-15T12:26:44;6.80;99.90
42031;DHT22;27709;52.036;5.906;2024-01-15T12:29:10;7.10;99.90
42031;DHT22;27709;52.036;5.906;2024-01-15T12:31:36;7.30;99.90
42031;DHT22;27709;52.036;5.906;2024-01-15T12:34:05;7.10;99.90
42031;DHT22;27709;52.036;5.906;2024-01-15T12:36:31;6.80;99.90
42031;DHT22;27709;52.036;5.906;2024-01-15T12:38:59;6.50;99.90
42031;DHT22;27709;52.036;5.906;2024-01-15T12:41:25;6.20;99.90
42031;DHT22;27709;52.036;5.906;2024-01-15T12:43:51;6.00;99.90
42031;DHT22;27709;52.036;5.906;2024-01-15T12:46:16;5.80;99.90
42031;DHT22;27709;52.036;5.906;2024-01-15T12:48:42;5.80;99.90
42031;DHT22;27709;52.036;5.906;2024-01-15T12:51:08;5.80;99.90
42031;DHT22;27709;52.036;5.906;2024-01-15T12:53:33;5.90;99.90
42031;DHT22;27709;52.036;5.906;2024-01-15T12:56:00;5.90;99.90
42031;DHT22;27709;52.036;5.906;2024-01-15T12:58:27;6.00;99.90
42031;DHT22;27709;52.036;5.906;2024-01-15T13:00:52;6.10;99.90
42031;DHT22;27709;52.036;5.906;2024-01-15T13:03:18;6.10;99.90
42031;DHT22;27709;52.036;5.906;2024-01-15T13:05:44;6.10;99.90
42031;DHT22;27709;52.036;5.906;2024-01-15T13:08:10;6.20;99.90
42031;DHT22;27709;52.036;5.906;2024-01-15T13:10:36;6.20;99.90
42031;DHT22;27709;52.036;5.906;2024-01-15T13:13:01;6.30;99.90
42031;DHT22;27709;52.036;5.906;2024-01-15T13:15:28;6.40;99.90
42031;DHT22;27709;52.036;5.906;2024-01-15T13:17:54;6.40;99.90
42031;DHT22;27709;52.036;5.906;2024-01-15T13:20:19;6.30;99.90
42031;DHT22;27709;52.036;5.906;2024-01-15T13:22:45;6.20;99.90
42031;DHT22;27709;52.036;5.906;2024-01-15T13:25:11;6.20;99.90
42031;DHT22;27709;52.036;5.906;2024-01-15T13:27:37;6.10;99.90
42031;DHT22;27709;52.036;5.906;2024-01-15T13:30:03;6.00;99.90
42031;DHT22;27709;52.036;5.906;2024-01-15T13:32:29;6.00;99.90
42031;DHT22;27709;52.036;5.906;2024-01-15T13:34:56;5.90;99.90
42031;DHT22;27709;52.036;5.906;2024-01-15T13:37:22;5.90;99.90
42031;DHT22;27709;52.036;5.906;2024-01-15T13:39:50;5.80;99.90
42031;DHT22;27709;52.036;5.906;2024-01-15T13:42:17;5.70;99.90
42031;DHT22;27709;52.036;5.906;2024-01-15T13:44:42;5.50;99.90
42031;DHT22;27709;52.036;5.906;2024-01-15T13:47:08;5.50;99.90
42031;DHT22;27709;52.036;5.906;2024-01-15T13:49:34;5.40;99.90
42031;DHT22;27709;52.036;5.906;2024-01-15T13:52:01;5.40;99.90
42031;DHT22;27709;52.036;5.906;2024-01-15T13:54:29;5.40;99.90
42031;DHT22;27709;52.036;5.906;2024-01-15T13:56:55;5.30;99.90
42031;DHT22;27709;52.036;5.906;2024-01-15T13:59:21;5.30;99.90
42031;DHT22;27709;52.036;5.906;2024-01-15T14:01:47;5.30;99.90
42031;DHT22;27709;52.036;5.906;2024-01-15T14:04:13;5.30;99.90
42031;DHT22;27709;52.036;5.906;2024-01-15T14:06:38;5.30;99.90
42031;DHT22;27709;52.036;5.906;2024-01-15T14:09:04;5.40;99.90
42031;DHT22;27709;52.036;5.906;2024-01-15T14:11:30;5.40;99.90
42031;DHT22;27709;52.036;5.906;2024-01-15T14:13:56;5.40;99.90
42031;DHT22;27709;52.036;5.906;2024-01-15T14:16:22;5.50;99.90
42031;DHT22;27709;52.036;5.906;2024-01-15T14:18:48;5.60;99.90
42031;DHT22;27709;52.036;5.906;2024-01-15T14:21:13;5.80;99.90
42031;DHT22;27709;52.036;5.906;2024-01-15T14:23:39;6.00;99.90
42031;DHT22;27709;52.036;5.906;2024-01-15T14:26:05;6.00;99.90
42031;DHT22;27709;52.036;5.906;2024-01-15T14:28:31;6.00;99.90
42031;DHT22;27709;52.036;5.906;2024-01-15T14:30:56;5.90;99.90
42031;DHT22;27709;52.036;5.906;2024-01-15T14:33:24;5.70;99.90
42031;DHT22;27709;52.036;5.906;2024-01-15T14:35:50;5.70;99.90
42031;DHT22;27709;52.036;5.906;2024-01-15T14:38:16;5.60;99.90
42031;DHT22;27709;52.036;5.906;2024-01-15T14:40:42;5.60;99.90
42031;DHT22;27709;52.036;5.906;2024-01-15T14:43:09;5.50;99.90
42031;DHT22;27709;52.036;5.906;2024-01-15T14:45:35;5.40;99.90
42031;DHT22;27709;52.036;5.906;2024-01-15T14:48:00;5.30;99.90
42031;DHT22;27709;52.036;5.906;2024-01-15T14:50:26;5.30;99.90
42031;DHT22;27709;52.036;5.906;2024-01-15T14:52:52;5.30;99.90
42031;DHT22;27709;52.036;5.906;2024-01-15T14:55:17;5.20;99.90
42031;DHT22;27709;52.036;5.906;2024-01-15T14:57:43;5.20;99.90
42031;DHT22;27709;52.036;5.906;2024-01-15T15:00:08;5.10;99.90
42031;DHT22;27709;52.036;5.906;2024-01-15T15:02:35;5.20;99.90
42031;DHT22;27709;52.036;5.906;2024-01-15T15:05:02;5.30;99.90
42031;DHT22;27709;52.036;5.906;2024-01-15T15:07:28;5.40;99.90
42031;DHT22;27709;52.036;5.906;2024-01-15T15:09:53;5.40;99.90
42031;DHT22;27709;52.036;5.906;2024-01-15T15:12:19;5.40;99.90
42031;DHT22;27709;52.036;5.906;2024-01-15T15:14:44;5.40;99.90
42031;DHT22;27709;52.036;5.906;2024-01-15T15:17:10;5.40;99.90
42031;DHT22;27709;52.036;5.906;2024-01-15T15:19:36;5.20;99.90
42031;DHT22;27709;52.036;5.906;2024-01-15T15:22:02;5.10;99.90
42031;DHT22;27709;52.036;5.906;2024-01-15T15:24:27;4.90;99.90
42031;DHT22;27709;52.036;5.906;2024-01-15T15:26:53;4.90;99.90
42031;DHT22;27709;52.036;5.906;2024-01-15T15:29:18;4.80;99.90
42031;DHT22;27709;52.036;5.906;2024-01-15T15:31:44;4.70;99.90
42031;DHT22;27709;52.036;5.906;2024-01-15T15:34:10;4.70;99.90
42031;DHT22;27709;52.036;5.906;2024-01-15T15:36:35;4.60;99.90
42031;DHT22;27709;52.036;5.906;2024-01-15T15:39:01;4.60;99.90
42031;DHT22;27709;52.036;5.906;2024-01-15T15:41:27;4.50;99.90
42031;DHT22;27709;52.036;5.906;2024-01-15T15:43:54;4.40;99.90
42031;DHT22;27709;52.036;5.906;2024-01-15T15:46:19;4.40;99.90
42031;DHT22;27709;52.036;5.906;2024-01-15T15:48:45;4.40;99.90
42031;DHT22;27709;52.036;5.906;2024-01-15T15:51:10;4.30;99.90
42031;DHT22;27709;52.036;5.906;2024-01-15T15:53:36;4.30;99.90
42031;DHT22;27709;52.036;5.906;2024-01-15T15:56:02;4.30;99.90